Dream Finders Homes Great Turkey Trot 5K — Results

Clermont, Florida, United States

1st Place

Paxton Herring

Dream Finders Homes The Great Turkey Trot 5K

18:40

2nd Place

Ryan Schultz

Dream Finders Homes The Great Turkey Trot 5K

18:53

3rd Place

Preston Herring

Dream Finders Homes The Great Turkey Trot 5K

18:58

# Bib Name Gender Gender Rank Age Group AG Rank Finish Time Pace
301 44 Deanna Bergamo Female F 40-49 39 42:11 13:35 /mi
302 662 Andrea Portal Female F 30-39 53 42:14 13:36 /mi
303 149 Chloe Earp Female F 20-29 26 42:15 13:36 /mi
304 46 Marcela Berrios Female F 30-39 54 42:18 13:37 /mi
305 464 Kellie Ramos Female F 30-39 55 42:28 13:40 /mi
306 147 Suzanne Dusch Female F 60-69 8 42:34 13:42 /mi
307 133 John Diaz Male M 30-39 31 42:38 13:43 /mi
308 146 Holly Durand Female F 30-39 56 42:39 13:44 /mi
309 529 Ivan Sementilli Male M 30-39 32 42:39 13:44 /mi
310 579 C. Thompson Male 42:44 13:45 /mi
311 17 Marisol Andrade Female F 40-49 40 42:46 13:46 /mi
312 345 Marcelo Machado Male M 40-49 33 42:46 13:46 /mi
313 580 Kimberly Thompson Female F 40-49 41 42:50 13:47 /mi
314 87 David Chesher Male M 50-59 12 43:05 13:52 /mi
315 429 Amanda Panza Female F 30-39 57 43:09 13:53 /mi
316 658 Kalie Zakar Female F 30-39 58 43:13 13:55 /mi
317 63 Tina Brown Female F 50-59 22 43:16 13:55 /mi
318 15 Corinne Ambrose Female F 60-69 9 43:23 13:58 /mi
319 551 Stacey Smithwick Female F 40-49 42 43:24 13:58 /mi
320 659 Wil Zambrana Male M 40-49 34 43:25 13:58 /mi
321 135 Jonathan Ditieri Male M 40-49 35 43:26 13:59 /mi
322 322 L. Levine Female 43:33 14:01 /mi
323 323 Mary Lynn Levine Female F 40-49 43 43:33 14:01 /mi
324 321 David Levine Male M 40-49 36 43:34 14:01 /mi
325 337 Katarina Lowe Female F 20-29 27 43:38 14:03 /mi
326 365 Emilee McCluskey Female F 30-39 59 43:38 14:03 /mi
327 219 John Hallenbeck Male M 50-59 13 43:38 14:03 /mi
328 218 Jennifer Hallenbeck Female F 50-59 23 43:39 14:03 /mi
329 69 Thirza Caldwell Female F 40-49 44 43:43 14:04 /mi
330 623 Denee Wallace Female F 40-49 45 43:45 14:05 /mi
331 545 Suzanne Skinner Female F 50-59 24 43:45 14:05 /mi
332 572 Trucia Sutherland Female F 20-29 28 43:45 14:05 /mi
333 240 Zury Hernandez Female F 40-49 46 43:49 14:06 /mi
334 574 Laurie Templin Female F 60-69 10 43:57 14:09 /mi
335 64 Izzy Brunsman Female F 20-29 29 44:03 14:11 /mi
336 298 Kori Kirschner Female F 40-49 47 44:04 14:11 /mi
337 510 Diana Sambonl Female F 30-39 60 44:06 14:12 /mi
338 590 Ronald Trevisani Male M 50-59 14 44:14 14:14 /mi
339 606 Marizel Vasquez Female F 40-49 48 44:17 14:15 /mi
340 408 Caroline Newsome Female F 20-29 30 44:25 14:18 /mi
341 423 Monica Oquendo Female F 20-29 31 44:25 14:18 /mi
342 390 Sarah Mixco Female F 30-39 61 44:27 14:18 /mi
343 380 Lindsey Mercer Female F 30-39 62 44:30 14:19 /mi
344 415 Michelle O'Rourke Female F 40-49 49 44:32 14:20 /mi
345 156 Tiffany Falcon Female F 30-39 63 44:45 14:24 /mi
346 34 Alexandra Bartholomew Female F 30-39 64 44:46 14:24 /mi
347 131 Cammie Dewey Female F 60-69 11 44:51 14:26 /mi
348 204 A. Grahek Male 44:53 14:27 /mi
349 339 Denise Lucena Female F 40-49 50 44:55 14:27 /mi
350 62 Janet Brindle Female F 40-49 51 44:57 14:28 /mi

Showing 301–350 of 574 results